sensor_id;sensor_type;location;lat;lon;timestamp;pressure;altitude;pressure_sealevel;temperature;humidity
58843;BME280;44614;54.356;10.100;2023-05-20T00:01:56;102723.88;;;9.21;87.40
58843;BME280;44614;54.356;10.100;2023-05-20T00:04:22;102742.38;;;9.27;87.05
58843;BME280;44614;54.356;10.100;2023-05-20T00:06:47;102735.19;;;9.26;88.25
58843;BME280;44614;54.356;10.100;2023-05-20T00:09:12;102719.75;;;9.17;87.85
58843;BME280;44614;54.356;10.100;2023-05-20T00:11:38;102729.50;;;9.19;86.29
58843;BME280;44614;54.356;10.100;2023-05-20T00:14:03;102728.00;;;9.17;86.03
58843;BME280;44614;54.356;10.100;2023-05-20T00:16:29;102724.72;;;9.13;86.42
58843;BME280;44614;54.356;10.100;2023-05-20T00:18:54;102729.03;;;9.16;86.46
58843;BME280;44614;54.356;10.100;2023-05-20T00:21:21;102700.88;;;8.97;87.34
58843;BME280;44614;54.356;10.100;2023-05-20T00:23:47;102722.63;;;9.07;87.77
58843;BME280;44614;54.356;10.100;2023-05-20T00:26:12;102716.63;;;9.03;87.72
58843;BME280;44614;54.356;10.100;2023-05-20T00:28:39;102753.31;;;9.11;87.41
58843;BME280;44614;54.356;10.100;2023-05-20T00:31:05;102726.59;;;9.05;86.92
58843;BME280;44614;54.356;10.100;2023-05-20T00:33:30;102723.84;;;9.05;86.24
58843;BME280;44614;54.356;10.100;2023-05-20T00:35:55;102733.47;;;9.09;86.52
58843;BME280;44614;54.356;10.100;2023-05-20T00:38:21;102719.91;;;9.07;85.64
58843;BME280;44614;54.356;10.100;2023-05-20T00:40:46;102732.41;;;9.10;86.49
58843;BME280;44614;54.356;10.100;2023-05-20T00:43:12;102705.31;;;8.90;86.29
58843;BME280;44614;54.356;10.100;2023-05-20T00:45:37;102725.91;;;9.11;85.83
58843;BME280;44614;54.356;10.100;2023-05-20T00:48:04;102724.38;;;9.08;86.14
58843;BME280;44614;54.356;10.100;2023-05-20T00:50:31;102727.44;;;9.05;85.76
58843;BME280;44614;54.356;10.100;2023-05-20T00:52:56;102720.59;;;9.01;86.55
58843;BME280;44614;54.356;10.100;2023-05-20T00:55:23;102706.50;;;8.96;86.74
58843;BME280;44614;54.356;10.100;2023-05-20T00:57:50;102720.22;;;9.04;87.40
58843;BME280;44614;54.356;10.100;2023-05-20T01:00:16;102717.66;;;9.02;86.77
58843;BME280;44614;54.356;10.100;2023-05-20T01:02:41;102714.25;;;9.00;87.56
58843;BME280;44614;54.356;10.100;2023-05-20T01:05:07;102703.06;;;8.86;87.31
58843;BME280;44614;54.356;10.100;2023-05-20T01:07:32;102715.59;;;8.96;87.00
58843;BME280;44614;54.356;10.100;2023-05-20T01:09:58;102718.69;;;9.01;87.15
58843;BME280;44614;54.356;10.100;2023-05-20T01:17:31;102694.50;;;8.89;86.71
58843;BME280;44614;54.356;10.100;2023-05-20T01:20:00;102700.84;;;8.89;87.29
58843;BME280;44614;54.356;10.100;2023-05-20T01:22:27;102716.09;;;9.00;87.32
58843;BME280;44614;54.356;10.100;2023-05-20T01:24:52;102709.44;;;8.94;86.94
58843;BME280;44614;54.356;10.100;2023-05-20T01:27:19;102703.59;;;8.89;86.86
58843;BME280;44614;54.356;10.100;2023-05-20T01:29:47;102709.44;;;8.94;85.57
58843;BME280;44614;54.356;10.100;2023-05-20T01:32:21;102710.47;;;8.93;84.80
58843;BME280;44614;54.356;10.100;2023-05-20T01:34:49;102707.00;;;8.91;85.08
58843;BME280;44614;54.356;10.100;2023-05-20T01:37:16;102713.84;;;8.87;85.82
58843;BME280;44614;54.356;10.100;2023-05-20T01:39:42;102707.72;;;8.93;88.96
58843;BME280;44614;54.356;10.100;2023-05-20T01:42:09;102706.34;;;8.89;86.70
58843;BME280;44614;54.356;10.100;2023-05-20T01:44:35;102703.94;;;8.86;85.39
58843;BME280;44614;54.356;10.100;2023-05-20T01:47:01;102700.16;;;8.87;84.79
58843;BME280;44614;54.356;10.100;2023-05-20T01:49:26;102710.78;;;8.90;85.36
58843;BME280;44614;54.356;10.100;2023-05-20T01:51:51;102699.31;;;8.87;85.02
58843;BME280;44614;54.356;10.100;2023-05-20T01:54:17;102704.28;;;8.91;84.51
58843;BME280;44614;54.356;10.100;2023-05-20T01:56:44;102693.50;;;8.90;84.07
58843;BME280;44614;54.356;10.100;2023-05-20T01:59:10;102698.78;;;8.91;83.81
58843;BME280;44614;54.356;10.100;2023-05-20T02:01:35;102697.59;;;8.86;83.55
58843;BME280;44614;54.356;10.100;2023-05-20T02:04:01;102693.97;;;8.85;83.21
58843;BME280;44614;54.356;10.100;2023-05-20T02:06:26;102686.78;;;8.84;82.90
58843;BME280;44614;54.356;10.100;2023-05-20T02:08:53;102679.25;;;8.78;83.09
58843;BME280;44614;54.356;10.100;2023-05-20T02:11:19;102679.41;;;8.76;83.37
58843;BME280;44614;54.356;10.100;2023-05-20T02:13:44;102693.13;;;8.85;83.07
58843;BME280;44614;54.356;10.100;2023-05-20T02:16:09;102685.25;;;8.82;82.79
58843;BME280;44614;54.356;10.100;2023-05-20T02:18:35;102679.91;;;8.80;84.64
58843;BME280;44614;54.356;10.100;2023-05-20T02:21:01;102673.03;;;8.68;85.13
58843;BME280;44614;54.356;10.100;2023-05-20T02:23:28;102684.56;;;8.79;85.15
58843;BME280;44614;54.356;10.100;2023-05-20T02:25:54;102693.63;;;8.80;85.87
58843;BME280;44614;54.356;10.100;2023-05-20T02:28:19;102678.88;;;8.73;85.73
58843;BME280;44614;54.356;10.100;2023-05-20T02:30:45;102684.34;;;8.73;86.75
58843;BME280;44614;54.356;10.100;2023-05-20T02:33:11;102684.72;;;8.78;86.20
58843;BME280;44614;54.356;10.100;2023-05-20T02:35:36;102683.69;;;8.79;86.70
58843;BME280;44614;54.356;10.100;2023-05-20T02:38:02;102682.00;;;8.78;86.62
58843;BME280;44614;54.356;10.100;2023-05-20T02:40:27;102690.56;;;8.83;87.00
58843;BME280;44614;54.356;10.100;2023-05-20T02:42:53;102680.25;;;8.77;86.25
58843;BME280;44614;54.356;10.100;2023-05-20T02:45:18;102684.69;;;8.70;85.44
58843;BME280;44614;54.356;10.100;2023-05-20T02:47:44;102691.06;;;8.78;86.18
58843;BME280;44614;54.356;10.100;2023-05-20T02:50:09;102683.16;;;8.75;86.63
58843;BME280;44614;54.356;10.100;2023-05-20T02:52:35;102685.72;;;8.77;85.92
58843;BME280;44614;54.356;10.100;2023-05-20T02:55:02;102689.19;;;8.79;85.62
58843;BME280;44614;54.356;10.100;2023-05-20T02:57:28;102694.47;;;8.81;86.05
58843;BME280;44614;54.356;10.100;2023-05-20T02:59:54;102666.03;;;8.73;86.32
58843;BME280;44614;54.356;10.100;2023-05-20T03:02:20;102677.38;;;8.78;86.39
58843;BME280;44614;54.356;10.100;2023-05-20T03:04:47;102682.66;;;8.80;86.11
58843;BME280;44614;54.356;10.100;2023-05-20T03:07:12;102675.63;;;8.77;86.08
58843;BME280;44614;54.356;10.100;2023-05-20T03:09:38;102697.41;;;8.87;85.42
58843;BME280;44614;54.356;10.100;2023-05-20T03:12:04;102672.75;;;8.79;85.77
58843;BME280;44614;54.356;10.100;2023-05-20T03:14:30;102683.91;;;8.86;85.42
58843;BME280;44614;54.356;10.100;2023-05-20T03:16:55;102679.78;;;8.90;85.59
58843;BME280;44614;54.356;10.100;2023-05-20T03:19:21;102670.66;;;8.81;84.87
58843;BME280;44614;54.356;10.100;2023-05-20T03:21:47;102666.22;;;8.80;85.13
58843;BME280;44614;54.356;10.100;2023-05-20T03:24:14;102683.06;;;8.93;85.86
58843;BME280;44614;54.356;10.100;2023-05-20T03:26:40;102673.47;;;8.89;85.23
58843;BME280;44614;54.356;10.100;2023-05-20T03:29:10;102684.59;;;8.96;85.20
58843;BME280;44614;54.356;10.100;2023-05-20T03:31:36;102682.03;;;8.94;85.08
58843;BME280;44614;54.356;10.100;2023-05-20T03:34:01;102685.09;;;8.99;85.21
58843;BME280;44614;54.356;10.100;2023-05-20T03:36:27;102711.84;;;9.06;85.63
58843;BME280;44614;54.356;10.100;2023-05-20T03:38:53;102669.34;;;8.93;85.34
58843;BME280;44614;54.356;10.100;2023-05-20T03:41:18;102697.44;;;9.03;84.88
58843;BME280;44614;54.356;10.100;2023-05-20T03:43:44;102665.25;;;8.97;84.39
58843;BME280;44614;54.356;10.100;2023-05-20T03:46:10;102697.84;;;9.17;84.43
58843;BME280;44614;54.356;10.100;2023-05-20T03:48:35;102697.97;;;9.15;84.30
58843;BME280;44614;54.356;10.100;2023-05-20T03:51:02;102690.78;;;9.14;83.67
58843;BME280;44614;54.356;10.100;2023-05-20T03:53:27;102685.13;;;9.08;83.55
58843;BME280;44614;54.356;10.100;2023-05-20T03:55:53;102690.28;;;9.19;83.88
58843;BME280;44614;54.356;10.100;2023-05-20T03:58:18;102694.78;;;9.28;82.93
58843;BME280;44614;54.356;10.100;2023-05-20T04:00:45;102690.13;;;9.20;82.97
58843;BME280;44614;54.356;10.100;2023-05-20T04:03:11;102687.22;;;9.30;82.71
58843;BME280;44614;54.356;10.100;2023-05-20T04:05:37;102696.81;;;9.34;83.10
58843;BME280;44614;54.356;10.100;2023-05-20T04:08:09;102693.75;;;9.37;83.13
58843;BME280;44614;54.356;10.100;2023-05-20T04:10:39;102682.78;;;9.37;82.48
58843;BME280;44614;54.356;10.100;2023-05-20T04:13:05;102681.06;;;9.36;83.11
58843;BME280;44614;54.356;10.100;2023-05-20T04:15:34;102669.75;;;9.39;82.20
58843;BME280;44614;54.356;10.100;2023-05-20T04:18:00;102665.66;;;9.35;82.24
58843;BME280;44614;54.356;10.100;2023-05-20T04:20:26;102681.06;;;9.52;82.90
58843;BME280;44614;54.356;10.100;2023-05-20T04:22:54;102686.22;;;9.56;82.83
58843;BME280;44614;54.356;10.100;2023-05-20T04:25:20;102687.25;;;9.63;82.93
58843;BME280;44614;54.356;10.100;2023-05-20T04:27:46;102663.75;;;9.52;83.05
58843;BME280;44614;54.356;10.100;2023-05-20T04:30:12;102657.75;;;9.48;82.90
58843;BME280;44614;54.356;10.100;2023-05-20T04:32:39;102680.53;;;9.65;83.20
58843;BME280;44614;54.356;10.100;2023-05-20T04:35:05;102669.41;;;9.59;83.04
58843;BME280;44614;54.356;10.100;2023-05-20T04:37:37;102671.63;;;9.63;82.49
58843;BME280;44614;54.356;10.100;2023-05-20T04:40:04;102684.31;;;9.64;83.09
58843;BME280;44614;54.356;10.100;2023-05-20T04:42:34;102678.81;;;9.64;85.35
58843;BME280;44614;54.356;10.100;2023-05-20T04:44:59;102675.22;;;9.64;83.46
58843;BME280;44614;54.356;10.100;2023-05-20T04:47:27;102667.00;;;9.64;83.34
58843;BME280;44614;54.356;10.100;2023-05-20T04:49:54;102664.44;;;9.70;82.92
58843;BME280;44614;54.356;10.100;2023-05-20T04:52:25;102665.97;;;9.73;82.67
58843;BME280;44614;54.356;10.100;2023-05-20T04:54:51;102668.34;;;9.84;82.78
58843;BME280;44614;54.356;10.100;2023-05-20T04:57:16;102655.00;;;9.81;83.48
58843;BME280;44614;54.356;10.100;2023-05-20T04:59:48;102659.75;;;9.95;83.42
58843;BME280;44614;54.356;10.100;2023-05-20T05:02:13;102659.75;;;9.95;82.47
58843;BME280;44614;54.356;10.100;2023-05-20T05:04:39;102680.69;;;10.05;83.80
58843;BME280;44614;54.356;10.100;2023-05-20T05:07:05;102671.72;;;10.11;83.71
58843;BME280;44614;54.356;10.100;2023-05-20T05:09:31;102661.97;;;10.08;83.44
58843;BME280;44614;54.356;10.100;2023-05-20T05:11:56;102656.28;;;10.10;83.14
58843;BME280;44614;54.356;10.100;2023-05-20T05:14:21;102663.66;;;10.25;83.55
58843;BME280;44614;54.356;10.100;2023-05-20T05:16:48;102661.06;;;10.32;83.13
58843;BME280;44614;54.356;10.100;2023-05-20T05:19:14;102672.69;;;10.42;84.24
58843;BME280;44614;54.356;10.100;2023-05-20T05:21:41;102673.56;;;10.43;83.36
58843;BME280;44614;54.356;10.100;2023-05-20T05:24:06;102678.84;;;10.44;83.99
58843;BME280;44614;54.356;10.100;2023-05-20T05:26:32;102674.22;;;10.45;83.93
58843;BME280;44614;54.356;10.100;2023-05-20T05:28:58;102679.19;;;10.41;86.14
58843;BME280;44614;54.356;10.100;2023-05-20T05:31:24;102681.59;;;10.44;84.75
58843;BME280;44614;54.356;10.100;2023-05-20T05:33:49;102675.75;;;10.47;85.35
58843;BME280;44614;54.356;10.100;2023-05-20T05:36:15;102673.00;;;10.47;84.66
58843;BME280;44614;54.356;10.100;2023-05-20T05:38:41;102676.72;;;10.63;84.70
58843;BME280;44614;54.356;10.100;2023-05-20T05:41:09;102685.25;;;10.76;85.38
58843;BME280;44614;54.356;10.100;2023-05-20T05:43:36;102671.69;;;10.74;85.01
58843;BME280;44614;54.356;10.100;2023-05-20T05:46:02;102674.53;;;10.89;84.83
58843;BME280;44614;54.356;10.100;2023-05-20T05:48:29;102674.16;;;10.92;84.37
58843;BME280;44614;54.356;10.100;2023-05-20T05:50:54;102667.41;;;11.03;84.51
58843;BME280;44614;54.356;10.100;2023-05-20T05:53:20;102674.69;;;11.19;83.97
58843;BME280;44614;54.356;10.100;2023-05-20T05:55:48;102613.63;;;11.01;82.76
58843;BME280;44614;54.356;10.100;2023-05-20T05:58:14;102671.00;;;11.50;82.74
58843;BME280;44614;54.356;10.100;2023-05-20T06:00:40;102658.22;;;11.57;83.12
58843;BME280;44614;54.356;10.100;2023-05-20T06:03:06;102676.59;;;11.79;82.18
58843;BME280;44614;54.356;10.100;2023-05-20T06:05:35;102670.59;;;11.99;81.76
58843;BME280;44614;54.356;10.100;2023-05-20T06:08:01;102664.63;;;12.10;81.26
58843;BME280;44614;54.356;10.100;2023-05-20T06:10:26;102672.41;;;12.21;81.17
58843;BME280;44614;54.356;10.100;2023-05-20T06:12:52;102671.06;;;12.32;80.64
58843;BME280;44614;54.356;10.100;2023-05-20T06:15:17;102688.06;;;12.50;80.61
58843;BME280;44614;54.356;10.100;2023-05-20T06:17:44;102687.69;;;12.68;79.91
58843;BME280;44614;54.356;10.100;2023-05-20T06:20:10;102670.56;;;12.58;79.51
58843;BME280;44614;54.356;10.100;2023-05-20T06:22:36;102668.38;;;12.68;79.60
58843;BME280;44614;54.356;10.100;2023-05-20T06:25:02;102670.28;;;12.82;79.61
58843;BME280;44614;54.356;10.100;2023-05-20T06:27:28;102676.41;;;12.99;79.22
58843;BME280;44614;54.356;10.100;2023-05-20T06:29:54;102684.50;;;13.22;78.68
58843;BME280;44614;54.356;10.100;2023-05-20T06:32:20;102657.19;;;13.27;77.73
58843;BME280;44614;54.356;10.100;2023-05-20T06:34:45;102665.34;;;13.35;78.00
58843;BME280;44614;54.356;10.100;2023-05-20T06:37:11;102666.56;;;13.54;78.39
58843;BME280;44614;54.356;10.100;2023-05-20T06:39:36;102687.88;;;13.60;77.37
58843;BME280;44614;54.356;10.100;2023-05-20T06:42:02;102665.19;;;13.65;77.85
58843;BME280;44614;54.356;10.100;2023-05-20T06:44:30;102672.28;;;13.74;77.24
58843;BME280;44614;54.356;10.100;2023-05-20T06:46:59;102686.75;;;13.76;78.05
58843;BME280;44614;54.356;10.100;2023-05-20T06:49:24;102669.63;;;13.87;76.90
58843;BME280;44614;54.356;10.100;2023-05-20T06:51:50;102683.03;;;13.90;77.00
58843;BME280;44614;54.356;10.100;2023-05-20T06:54:15;102647.13;;;13.90;76.45
58843;BME280;44614;54.356;10.100;2023-05-20T06:56:41;102657.13;;;13.92;76.94
58843;BME280;44614;54.356;10.100;2023-05-20T06:59:08;102652.09;;;14.02;77.67
58843;BME280;44614;54.356;10.100;2023-05-20T07:01:34;102667.22;;;14.41;76.09
58843;BME280;44614;54.356;10.100;2023-05-20T07:04:01;102647.31;;;14.17;75.67
58843;BME280;44614;54.356;10.100;2023-05-20T07:06:26;102657.13;;;14.20;76.72
58843;BME280;44614;54.356;10.100;2023-05-20T07:08:52;102655.00;;;14.56;76.59
58843;BME280;44614;54.356;10.100;2023-05-20T07:11:18;102654.13;;;14.56;75.34
58843;BME280;44614;54.356;10.100;2023-05-20T07:13:43;102649.47;;;14.56;75.85
58843;BME280;44614;54.356;10.100;2023-05-20T07:16:09;102664.22;;;14.70;75.42
58843;BME280;44614;54.356;10.100;2023-05-20T07:18:37;102667.44;;;14.87;76.06
58843;BME280;44614;54.356;10.100;2023-05-20T07:21:02;102666.72;;;15.33;74.72
58843;BME280;44614;54.356;10.100;2023-05-20T07:23:46;102656.94;;;15.64;73.69
58843;BME280;44614;54.356;10.100;2023-05-20T07:26:12;102654.44;;;15.69;73.41
58843;BME280;44614;54.356;10.100;2023-05-20T07:28:37;102661.22;;;15.93;73.09
58843;BME280;44614;54.356;10.100;2023-05-20T07:31:04;102637.78;;;15.95;72.62
58843;BME280;44614;54.356;10.100;2023-05-20T07:33:31;102651.97;;;16.32;72.84
58843;BME280;44614;54.356;10.100;2023-05-20T07:35:57;102644.25;;;16.47;71.05
58843;BME280;44614;54.356;10.100;2023-05-20T07:38:23;102648.53;;;16.50;71.21
58843;BME280;44614;54.356;10.100;2023-05-20T07:40:58;102634.88;;;16.48;69.13
58843;BME280;44614;54.356;10.100;2023-05-20T07:43:23;102646.94;;;16.67;70.86
58843;BME280;44614;54.356;10.100;2023-05-20T07:45:49;102652.56;;;16.54;69.10
58843;BME280;44614;54.356;10.100;2023-05-20T07:48:15;102652.22;;;16.24;71.59
58843;BME280;44614;54.356;10.100;2023-05-20T07:50:40;102649.63;;;16.36;72.72
58843;BME280;44614;54.356;10.100;2023-05-20T07:53:07;102649.03;;;16.85;71.43
58843;BME280;44614;54.356;10.100;2023-05-20T07:55:33;102652.47;;;16.87;67.72
58843;BME280;44614;54.356;10.100;2023-05-20T07:58:00;102630.31;;;16.74;70.55
58843;BME280;44614;54.356;10.100;2023-05-20T08:00:25;102648.06;;;17.04;69.94
58843;BME280;44614;54.356;10.100;2023-05-20T08:02:51;102629.66;;;17.42;69.48
58843;BME280;44614;54.356;10.100;2023-05-20T08:05:24;102641.06;;;17.34;69.53
58843;BME280;44614;54.356;10.100;2023-05-20T08:07:50;102642.78;;;17.28;66.63
58843;BME280;44614;54.356;10.100;2023-05-20T08:10:16;102640.69;;;16.92;70.22
58843;BME280;44614;54.356;10.100;2023-05-20T08:12:45;102641.19;;;17.14;69.85
58843;BME280;44614;54.356;10.100;2023-05-20T08:15:11;102630.28;;;16.67;68.42
58843;BME280;44614;54.356;10.100;2023-05-20T08:17:36;102642.63;;;16.26;70.43
58843;BME280;44614;54.356;10.100;2023-05-20T08:20:04;102646.06;;;16.22;69.47
58843;BME280;44614;54.356;10.100;2023-05-20T08:22:30;102635.00;;;16.08;68.90
58843;BME280;44614;54.356;10.100;2023-05-20T08:24:56;102647.59;;;15.84;66.25
58843;BME280;44614;54.356;10.100;2023-05-20T08:27:21;102623.72;;;15.44;69.67
58843;BME280;44614;54.356;10.100;2023-05-20T08:29:46;102649.09;;;15.74;70.32
58843;BME280;44614;54.356;10.100;2023-05-20T08:32:12;102643.97;;;15.91;69.83
58843;BME280;44614;54.356;10.100;2023-05-20T08:34:37;102635.16;;;16.20;67.38
58843;BME280;44614;54.356;10.100;2023-05-20T08:37:04;102636.66;;;16.23;68.90
58843;BME280;44614;54.356;10.100;2023-05-20T08:39:30;102643.00;;;16.43;68.34
58843;BME280;44614;54.356;10.100;2023-05-20T08:41:57;102639.13;;;16.51;67.48
58843;BME280;44614;54.356;10.100;2023-05-20T08:44:22;102644.41;;;16.66;64.02
58843;BME280;44614;54.356;10.100;2023-05-20T08:46:49;102636.16;;;16.46;67.12
58843;BME280;44614;54.356;10.100;2023-05-20T08:49:15;102635.09;;;16.40;68.01
58843;BME280;44614;54.356;10.100;2023-05-20T08:51:40;102636.94;;;16.66;67.04
58843;BME280;44614;54.356;10.100;2023-05-20T08:54:07;102637.13;;;16.71;63.26
58843;BME280;44614;54.356;10.100;2023-05-20T08:56:34;102646.56;;;16.57;64.15
58843;BME280;44614;54.356;10.100;2023-05-20T08:58:59;102630.91;;;16.18;63.32
58843;BME280;44614;54.356;10.100;2023-05-20T09:01:25;102625.34;;;16.24;64.91
58843;BME280;44614;54.356;10.100;2023-05-20T09:03:51;102626.25;;;16.12;66.54
58843;BME280;44614;54.356;10.100;2023-05-20T09:06:17;102612.44;;;15.85;66.02
58843;BME280;44614;54.356;10.100;2023-05-20T09:08:48;102614.97;;;16.00;66.53
58843;BME280;44614;54.356;10.100;2023-05-20T09:11:15;102614.31;;;15.98;63.40
58843;BME280;44614;54.356;10.100;2023-05-20T09:13:40;102605.81;;;15.93;64.91
58843;BME280;44614;54.356;10.100;2023-05-20T09:16:09;102620.75;;;15.92;62.86
58843;BME280;44614;54.356;10.100;2023-05-20T09:18:37;102634.41;;;15.80;63.57
58843;BME280;44614;54.356;10.100;2023-05-20T09:21:04;102635.63;;;16.04;64.30
58843;BME280;44614;54.356;10.100;2023-05-20T09:23:31;102616.41;;;16.22;63.31
58843;BME280;44614;54.356;10.100;2023-05-20T09:25:59;102625.75;;;16.28;62.86
58843;BME280;44614;54.356;10.100;2023-05-20T09:28:26;102622.06;;;16.54;61.69
58843;BME280;44614;54.356;10.100;2023-05-20T09:30:58;102610.16;;;16.40;61.58
58843;BME280;44614;54.356;10.100;2023-05-20T09:33:27;102605.31;;;16.22;64.73
58843;BME280;44614;54.356;10.100;2023-05-20T09:36:01;102602.03;;;16.45;62.77
58843;BME280;44614;54.356;10.100;2023-05-20T09:38:28;102593.78;;;16.84;62.83
58843;BME280;44614;54.356;10.100;2023-05-20T09:41:09;102590.16;;;17.15;61.47
58843;BME280;44614;54.356;10.100;2023-05-20T09:43:35;102600.13;;;17.22;60.45
58843;BME280;44614;54.356;10.100;2023-05-20T09:46:02;102590.56;;;17.18;59.35
58843;BME280;44614;54.356;10.100;2023-05-20T09:48:29;102588.69;;;17.05;59.58
58843;BME280;44614;54.356;10.100;2023-05-20T09:50:56;102599.66;;;16.94;60.93
58843;BME280;44614;54.356;10.100;2023-05-20T09:53:28;102591.94;;;16.64;58.21
58843;BME280;44614;54.356;10.100;2023-05-20T09:55:54;102593.88;;;16.57;57.19
58843;BME280;44614;54.356;10.100;2023-05-20T09:58:21;102601.81;;;16.47;58.85
58843;BME280;44614;54.356;10.100;2023-05-20T10:00:47;102606.19;;;16.16;55.75
58843;BME280;44614;54.356;10.100;2023-05-20T10:03:13;102596.41;;;16.07;58.27
58843;BME280;44614;54.356;10.100;2023-05-20T10:05:42;102605.34;;;16.09;58.36
58843;BME280;44614;54.356;10.100;2023-05-20T10:08:35;102562.44;;;16.25;56.87
58843;BME280;44614;54.356;10.100;2023-05-20T10:11:25;102590.69;;;16.53;56.45
58843;BME280;44614;54.356;10.100;2023-05-20T10:19:12;102578.75;;;16.53;56.77
58843;BME280;44614;54.356;10.100;2023-05-20T10:21:43;102576.34;;;16.63;59.19
58843;BME280;44614;54.356;10.100;2023-05-20T10:24:09;102581.44;;;16.79;58.15
58843;BME280;44614;54.356;10.100;2023-05-20T10:26:37;102582.78;;;16.57;56.87
58843;BME280;44614;54.356;10.100;2023-05-20T10:29:13;102584.31;;;16.46;55.14
58843;BME280;44614;54.356;10.100;2023-05-20T10:31:43;102579.59;;;16.53;59.17
58843;BME280;44614;54.356;10.100;2023-05-20T10:34:17;102578.22;;;16.69;57.44
58843;BME280;44614;54.356;10.100;2023-05-20T10:39:28;102565.00;;;16.71;56.79
58843;BME280;44614;54.356;10.100;2023-05-20T10:44:45;102556.44;;;16.79;55.59
58843;BME280;44614;54.356;10.100;2023-05-20T10:47:11;102546.91;;;16.62;58.23
58843;BME280;44614;54.356;10.100;2023-05-20T10:49:40;102549.72;;;16.55;56.63
58843;BME280;44614;54.356;10.100;2023-05-20T10:52:08;102524.88;;;16.36;57.16
58843;BME280;44614;54.356;10.100;2023-05-20T10:54:35;102555.09;;;16.50;57.63
58843;BME280;44614;54.356;10.100;2023-05-20T10:57:05;102557.69;;;16.39;58.34
58843;BME280;44614;54.356;10.100;2023-05-20T10:59:34;102549.50;;;16.05;58.85
58843;BME280;44614;54.356;10.100;2023-05-20T11:02:00;102545.91;;;15.98;59.20
58843;BME280;44614;54.356;10.100;2023-05-20T11:04:27;102546.47;;;16.20;58.41
58843;BME280;44614;54.356;10.100;2023-05-20T11:06:53;102539.16;;;16.32;58.64
58843;BME280;44614;54.356;10.100;2023-05-20T11:09:20;102540.59;;;16.48;56.22
58843;BME280;44614;54.356;10.100;2023-05-20T11:11:45;102545.91;;;16.50;58.55
58843;BME280;44614;54.356;10.100;2023-05-20T11:14:11;102535.50;;;16.84;57.29
58843;BME280;44614;54.356;10.100;2023-05-20T11:16:40;102531.50;;;17.04;57.93
58843;BME280;44614;54.356;10.100;2023-05-20T11:19:07;102539.41;;;17.01;57.15
58843;BME280;44614;54.356;10.100;2023-05-20T11:21:33;102523.63;;;16.63;58.09
58843;BME280;44614;54.356;10.100;2023-05-20T11:23:58;102514.13;;;16.91;57.13
58843;BME280;44614;54.356;10.100;2023-05-20T11:26:24;102522.44;;;16.91;57.38
58843;BME280;44614;54.356;10.100;2023-05-20T11:28:50;102522.66;;;16.51;57.76
58843;BME280;44614;54.356;10.100;2023-05-20T11:31:17;102523.50;;;16.51;59.27
58843;BME280;44614;54.356;10.100;2023-05-20T11:33:43;102518.28;;;16.68;58.91
58843;BME280;44614;54.356;10.100;2023-05-20T11:36:09;102529.59;;;16.67;58.32
58843;BME280;44614;54.356;10.100;2023-05-20T11:38:35;102501.56;;;16.81;58.74
58843;BME280;44614;54.356;10.100;2023-05-20T11:41:00;102526.22;;;16.96;57.16
58843;BME280;44614;54.356;10.100;2023-05-20T11:43:26;102503.25;;;16.83;57.74
58843;BME280;44614;54.356;10.100;2023-05-20T11:45:53;102505.88;;;16.77;57.71
58843;BME280;44614;54.356;10.100;2023-05-20T11:48:19;102518.31;;;17.00;58.03
58843;BME280;44614;54.356;10.100;2023-05-20T11:50:46;102506.81;;;17.21;57.75
58843;BME280;44614;54.356;10.100;2023-05-20T11:53:19;102512.03;;;17.36;56.31
58843;BME280;44614;54.356;10.100;2023-05-20T11:55:54;102503.50;;;17.56;56.88
58843;BME280;44614;54.356;10.100;2023-05-20T11:58:24;102508.78;;;17.83;55.59
58843;BME280;44614;54.356;10.100;2023-05-20T12:00:50;102501.22;;;17.46;56.46
58843;BME280;44614;54.356;10.100;2023-05-20T12:03:15;102507.31;;;17.37;57.85
58843;BME280;44614;54.356;10.100;2023-05-20T12:05:41;102506.31;;;17.93;56.21
58843;BME280;44614;54.356;10.100;2023-05-20T12:08:07;102477.41;;;18.12;55.63
58843;BME280;44614;54.356;10.100;2023-05-20T12:10:33;102511.34;;;18.02;55.33
58843;BME280;44614;54.356;10.100;2023-05-20T12:12:59;102482.09;;;18.30;55.16
58843;BME280;44614;54.356;10.100;2023-05-20T12:15:24;102486.22;;;17.72;56.81
58843;BME280;44614;54.356;10.100;2023-05-20T12:17:51;102484.91;;;17.57;58.53
58843;BME280;44614;54.356;10.100;2023-05-20T12:20:20;102480.16;;;18.31;56.16
58843;BME280;44614;54.356;10.100;2023-05-20T12:22:46;102474.31;;;18.20;56.59
58843;BME280;44614;54.356;10.100;2023-05-20T12:25:12;102481.25;;;18.30;55.92
58843;BME280;44614;54.356;10.100;2023-05-20T12:27:40;102474.09;;;18.52;56.29
58843;BME280;44614;54.356;10.100;2023-05-20T12:30:06;102474.44;;;18.44;56.37
58843;BME280;44614;54.356;10.100;2023-05-20T12:32:33;102458.09;;;18.47;55.21
58843;BME280;44614;54.356;10.100;2023-05-20T12:34:59;102473.78;;;18.42;56.61
58843;BME280;44614;54.356;10.100;2023-05-20T12:37:24;102468.88;;;18.44;55.56
58843;BME280;44614;54.356;10.100;2023-05-20T12:39:50;102471.22;;;18.29;56.84
58843;BME280;44614;54.356;10.100;2023-05-20T12:42:15;102462.84;;;18.47;55.10
58843;BME280;44614;54.356;10.100;2023-05-20T12:44:41;102468.38;;;18.17;55.21
58843;BME280;44614;54.356;10.100;2023-05-20T12:47:08;102469.78;;;17.71;56.88
58843;BME280;44614;54.356;10.100;2023-05-20T12:49:33;102468.69;;;17.72;57.55
58843;BME280;44614;54.356;10.100;2023-05-20T12:51:59;102470.91;;;18.18;56.66
58843;BME280;44614;54.356;10.100;2023-05-20T12:54:24;102467.13;;;18.43;55.27
58843;BME280;44614;54.356;10.100;2023-05-20T12:56:53;102469.03;;;18.61;53.25